Terminal Aerodrome Forecast
Issued by NWS Grand Junction, CO

Home | Current Version | Previous Version | Text Only | Print | Product List | Glossary On
Versions: 1 2 3 4 5 6 7 8 9 10 11 12 13 14 15 16
000
FTUS45 KGJT 232350 AAA
TAFGJT
TAF AMD
KGJT 232350Z 2400/2424 10008KT P6SM VCSH SCT070 BKN090
     FM240200 12006KT P6SM SCT060 BKN130
     FM240500 11005KT P6SM FEW070 SCT200
     FM241700 21008KT P6SM FEW070 SCT100
     FM242000 26014G23KT P6SM SCT080 SCT100=

USA.gov is the U.S. government's official web portal to all federal, state and local government web resources and services.